sensor_id;sensor_type;location;lat;lon;timestamp;temperature;humidity
52034;DHT22;38045;52.988;6.536;2023-04-09T00:01:07;8.40;99.90
52034;DHT22;38045;52.988;6.536;2023-04-09T00:03:33;8.40;99.90
52034;DHT22;38045;52.988;6.536;2023-04-09T00:05:59;8.40;99.90
52034;DHT22;38045;52.988;6.536;2023-04-09T00:08:25;8.40;99.90
52034;DHT22;38045;52.988;6.536;2023-04-09T00:10:51;8.40;99.90
52034;DHT22;38045;52.988;6.536;2023-04-09T00:13:17;8.40;99.90
52034;DHT22;38045;52.988;6.536;2023-04-09T00:15:44;8.30;99.90
52034;DHT22;38045;52.988;6.536;2023-04-09T00:18:10;8.30;99.90
52034;DHT22;38045;52.988;6.536;2023-04-09T00:20:36;8.30;99.90
52034;DHT22;38045;52.988;6.536;2023-04-09T00:23:02;8.30;99.90
52034;DHT22;38045;52.988;6.536;2023-04-09T00:25:27;8.30;99.90
52034;DHT22;38045;52.988;6.536;2023-04-09T00:27:53;8.30;99.90
52034;DHT22;38045;52.988;6.536;2023-04-09T00:30:19;8.30;99.90
52034;DHT22;38045;52.988;6.536;2023-04-09T00:32:45;8.30;99.90
52034;DHT22;38045;52.988;6.536;2023-04-09T00:35:11;8.30;99.90
52034;DHT22;38045;52.988;6.536;2023-04-09T00:37:37;8.30;99.90
52034;DHT22;38045;52.988;6.536;2023-04-09T00:40:03;8.30;99.90
52034;DHT22;38045;52.988;6.536;2023-04-09T00:42:32;8.30;99.90
52034;DHT22;38045;52.988;6.536;2023-04-09T00:44:59;8.20;99.90
52034;DHT22;38045;52.988;6.536;2023-04-09T00:47:25;8.30;99.90
52034;DHT22;38045;52.988;6.536;2023-04-09T00:49:53;8.30;99.90
52034;DHT22;38045;52.988;6.536;2023-04-09T00:52:19;8.30;99.90
52034;DHT22;38045;52.988;6.536;2023-04-09T00:54:46;8.20;99.90
52034;DHT22;38045;52.988;6.536;2023-04-09T00:57:12;8.20;99.90
52034;DHT22;38045;52.988;6.536;2023-04-09T00:59:37;8.20;99.90
52034;DHT22;38045;52.988;6.536;2023-04-09T01:02:03;8.20;99.90
52034;DHT22;38045;52.988;6.536;2023-04-09T01:04:29;8.20;99.90
52034;DHT22;38045;52.988;6.536;2023-04-09T01:07:00;8.20;99.90
52034;DHT22;38045;52.988;6.536;2023-04-09T01:09:40;8.20;99.90
52034;DHT22;38045;52.988;6.536;2023-04-09T01:17:17;8.20;99.90
52034;DHT22;38045;52.988;6.536;2023-04-09T01:19:53;8.10;99.90
52034;DHT22;38045;52.988;6.536;2023-04-09T01:22:48;8.10;99.90
52034;DHT22;38045;52.988;6.536;2023-04-09T01:30:34;8.00;99.90
52034;DHT22;38045;52.988;6.536;2023-04-09T01:33:00;8.00;99.90
52034;DHT22;38045;52.988;6.536;2023-04-09T01:35:27;8.00;99.90
52034;DHT22;38045;52.988;6.536;2023-04-09T01:37:54;8.00;99.90
52034;DHT22;38045;52.988;6.536;2023-04-09T01:40:21;8.00;99.90
52034;DHT22;38045;52.988;6.536;2023-04-09T01:42:47;7.90;99.90
52034;DHT22;38045;52.988;6.536;2023-04-09T01:45:14;7.90;99.90
52034;DHT22;38045;52.988;6.536;2023-04-09T01:47:40;8.00;99.90
52034;DHT22;38045;52.988;6.536;2023-04-09T01:50:07;7.90;99.90
52034;DHT22;38045;52.988;6.536;2023-04-09T01:52:33;7.80;99.90
52034;DHT22;38045;52.988;6.536;2023-04-09T01:54:58;7.80;99.90
52034;DHT22;38045;52.988;6.536;2023-04-09T01:57:24;7.70;99.90
52034;DHT22;38045;52.988;6.536;2023-04-09T01:59:50;7.70;99.90
52034;DHT22;38045;52.988;6.536;2023-04-09T02:02:19;7.70;99.90
52034;DHT22;38045;52.988;6.536;2023-04-09T02:04:50;7.70;99.90
52034;DHT22;38045;52.988;6.536;2023-04-09T02:07:22;7.60;99.90
52034;DHT22;38045;52.988;6.536;2023-04-09T02:09:52;7.60;99.90
52034;DHT22;38045;52.988;6.536;2023-04-09T02:12:19;7.60;99.90
52034;DHT22;38045;52.988;6.536;2023-04-09T02:14:48;7.50;99.90
52034;DHT22;38045;52.988;6.536;2023-04-09T02:17:15;7.50;99.90
52034;DHT22;38045;52.988;6.536;2023-04-09T02:19:45;7.40;99.90
52034;DHT22;38045;52.988;6.536;2023-04-09T02:22:12;7.30;99.90
52034;DHT22;38045;52.988;6.536;2023-04-09T02:24:38;7.30;99.90
52034;DHT22;38045;52.988;6.536;2023-04-09T02:27:05;7.30;99.90
52034;DHT22;38045;52.988;6.536;2023-04-09T02:29:31;7.30;99.90
52034;DHT22;38045;52.988;6.536;2023-04-09T02:31:56;7.30;99.90
52034;DHT22;38045;52.988;6.536;2023-04-09T02:34:22;7.30;99.90
52034;DHT22;38045;52.988;6.536;2023-04-09T02:36:48;7.30;99.90
52034;DHT22;38045;52.988;6.536;2023-04-09T02:39:14;7.30;99.90
52034;DHT22;38045;52.988;6.536;2023-04-09T02:41:39;7.30;99.90
52034;DHT22;38045;52.988;6.536;2023-04-09T02:44:05;7.30;99.90
52034;DHT22;38045;52.988;6.536;2023-04-09T02:46:31;7.40;99.90
52034;DHT22;38045;52.988;6.536;2023-04-09T02:48:56;7.40;99.90
52034;DHT22;38045;52.988;6.536;2023-04-09T02:51:22;7.40;99.90
52034;DHT22;38045;52.988;6.536;2023-04-09T02:53:47;7.50;99.90
52034;DHT22;38045;52.988;6.536;2023-04-09T02:56:13;7.50;99.90
52034;DHT22;38045;52.988;6.536;2023-04-09T02:58:39;7.50;99.90
52034;DHT22;38045;52.988;6.536;2023-04-09T03:01:04;7.40;99.90
52034;DHT22;38045;52.988;6.536;2023-04-09T03:03:30;7.50;99.90
52034;DHT22;38045;52.988;6.536;2023-04-09T03:05:56;7.50;99.90
52034;DHT22;38045;52.988;6.536;2023-04-09T03:08:22;7.50;99.90
52034;DHT22;38045;52.988;6.536;2023-04-09T03:10:47;7.50;99.90
52034;DHT22;38045;52.988;6.536;2023-04-09T03:13:13;7.50;99.90
52034;DHT22;38045;52.988;6.536;2023-04-09T03:15:38;7.50;99.90
52034;DHT22;38045;52.988;6.536;2023-04-09T03:18:04;7.50;99.90
52034;DHT22;38045;52.988;6.536;2023-04-09T03:20:30;7.50;99.90
52034;DHT22;38045;52.988;6.536;2023-04-09T03:22:56;7.50;99.90
52034;DHT22;38045;52.988;6.536;2023-04-09T03:25:21;7.50;99.90
52034;DHT22;38045;52.988;6.536;2023-04-09T03:27:47;7.50;99.90
52034;DHT22;38045;52.988;6.536;2023-04-09T03:30:12;7.50;99.90
52034;DHT22;38045;52.988;6.536;2023-04-09T03:32:38;7.50;99.90
52034;DHT22;38045;52.988;6.536;2023-04-09T03:35:04;7.50;99.90
52034;DHT22;38045;52.988;6.536;2023-04-09T03:37:30;7.50;99.90
52034;DHT22;38045;52.988;6.536;2023-04-09T03:39:55;7.60;99.90
52034;DHT22;38045;52.988;6.536;2023-04-09T03:42:21;7.50;99.90
52034;DHT22;38045;52.988;6.536;2023-04-09T03:44:46;7.50;99.90
52034;DHT22;38045;52.988;6.536;2023-04-09T03:47:12;7.50;99.90
52034;DHT22;38045;52.988;6.536;2023-04-09T03:49:37;7.50;99.90
52034;DHT22;38045;52.988;6.536;2023-04-09T03:52:04;7.50;99.90
52034;DHT22;38045;52.988;6.536;2023-04-09T03:54:31;7.50;99.90
52034;DHT22;38045;52.988;6.536;2023-04-09T03:56:56;7.60;99.90
52034;DHT22;38045;52.988;6.536;2023-04-09T03:59:23;7.60;99.90
52034;DHT22;38045;52.988;6.536;2023-04-09T04:01:48;7.60;99.90
52034;DHT22;38045;52.988;6.536;2023-04-09T04:04:14;7.60;99.90
52034;DHT22;38045;52.988;6.536;2023-04-09T04:06:40;7.70;99.90
52034;DHT22;38045;52.988;6.536;2023-04-09T04:09:05;7.70;99.90
52034;DHT22;38045;52.988;6.536;2023-04-09T04:11:31;7.60;99.90
52034;DHT22;38045;52.988;6.536;2023-04-09T04:13:56;7.60;99.90
52034;DHT22;38045;52.988;6.536;2023-04-09T04:16:22;7.60;99.90
52034;DHT22;38045;52.988;6.536;2023-04-09T04:18:48;7.60;99.90
52034;DHT22;38045;52.988;6.536;2023-04-09T04:21:14;7.60;99.90
52034;DHT22;38045;52.988;6.536;2023-04-09T04:23:40;7.60;99.90
52034;DHT22;38045;52.988;6.536;2023-04-09T04:26:09;7.50;99.90
52034;DHT22;38045;52.988;6.536;2023-04-09T04:28:35;7.50;99.90
52034;DHT22;38045;52.988;6.536;2023-04-09T04:31:01;7.60;99.90
52034;DHT22;38045;52.988;6.536;2023-04-09T04:33:26;7.50;99.90
52034;DHT22;38045;52.988;6.536;2023-04-09T04:35:52;7.50;99.90
52034;DHT22;38045;52.988;6.536;2023-04-09T04:38:18;7.50;99.90
52034;DHT22;38045;52.988;6.536;2023-04-09T04:40:43;7.50;99.90
52034;DHT22;38045;52.988;6.536;2023-04-09T04:43:09;7.50;99.90
52034;DHT22;38045;52.988;6.536;2023-04-09T04:45:34;7.50;99.90
52034;DHT22;38045;52.988;6.536;2023-04-09T04:48:00;7.50;99.90
52034;DHT22;38045;52.988;6.536;2023-04-09T04:50:26;7.50;99.90
52034;DHT22;38045;52.988;6.536;2023-04-09T04:52:51;7.50;99.90
52034;DHT22;38045;52.988;6.536;2023-04-09T04:55:17;7.50;99.90
52034;DHT22;38045;52.988;6.536;2023-04-09T04:57:42;7.50;99.90
52034;DHT22;38045;52.988;6.536;2023-04-09T05:00:08;7.50;99.90
52034;DHT22;38045;52.988;6.536;2023-04-09T05:02:34;7.50;99.90
52034;DHT22;38045;52.988;6.536;2023-04-09T05:04:59;7.50;99.90
52034;DHT22;38045;52.988;6.536;2023-04-09T05:07:25;7.50;99.90
52034;DHT22;38045;52.988;6.536;2023-04-09T05:09:51;7.60;99.90
52034;DHT22;38045;52.988;6.536;2023-04-09T05:12:16;7.60;99.90
52034;DHT22;38045;52.988;6.536;2023-04-09T05:14:42;7.60;99.90
52034;DHT22;38045;52.988;6.536;2023-04-09T05:17:08;7.50;99.90
52034;DHT22;38045;52.988;6.536;2023-04-09T05:19:34;7.60;99.90
52034;DHT22;38045;52.988;6.536;2023-04-09T05:21:59;7.60;99.90
52034;DHT22;38045;52.988;6.536;2023-04-09T05:24:25;7.60;99.90
52034;DHT22;38045;52.988;6.536;2023-04-09T05:26:51;7.60;99.90
52034;DHT22;38045;52.988;6.536;2023-04-09T05:29:16;7.60;99.90
52034;DHT22;38045;52.988;6.536;2023-04-09T05:31:42;7.60;99.90
52034;DHT22;38045;52.988;6.536;2023-04-09T05:34:08;7.60;99.90
52034;DHT22;38045;52.988;6.536;2023-04-09T05:36:33;7.70;99.90
52034;DHT22;38045;52.988;6.536;2023-04-09T05:38:59;7.60;99.90
52034;DHT22;38045;52.988;6.536;2023-04-09T05:41:25;7.60;99.90
52034;DHT22;38045;52.988;6.536;2023-04-09T05:43:50;7.70;99.90
52034;DHT22;38045;52.988;6.536;2023-04-09T05:46:16;7.70;99.90
52034;DHT22;38045;52.988;6.536;2023-04-09T05:48:41;7.70;99.90
52034;DHT22;38045;52.988;6.536;2023-04-09T05:51:07;7.70;99.90
52034;DHT22;38045;52.988;6.536;2023-04-09T05:53:33;7.70;99.90
52034;DHT22;38045;52.988;6.536;2023-04-09T05:55:59;7.70;99.90
52034;DHT22;38045;52.988;6.536;2023-04-09T05:58:26;7.70;99.90
52034;DHT22;38045;52.988;6.536;2023-04-09T06:00:52;7.70;99.90
52034;DHT22;38045;52.988;6.536;2023-04-09T06:03:18;7.70;99.90
52034;DHT22;38045;52.988;6.536;2023-04-09T06:05:44;7.70;99.90
52034;DHT22;38045;52.988;6.536;2023-04-09T06:08:11;7.70;99.90
52034;DHT22;38045;52.988;6.536;2023-04-09T06:10:37;7.70;99.90
52034;DHT22;38045;52.988;6.536;2023-04-09T06:13:02;7.70;99.90
52034;DHT22;38045;52.988;6.536;2023-04-09T06:15:28;7.70;99.90
52034;DHT22;38045;52.988;6.536;2023-04-09T06:17:54;7.70;99.90
52034;DHT22;38045;52.988;6.536;2023-04-09T06:20:19;7.80;99.90
52034;DHT22;38045;52.988;6.536;2023-04-09T06:22:45;7.80;99.90
52034;DHT22;38045;52.988;6.536;2023-04-09T06:25:11;7.80;99.90
52034;DHT22;38045;52.988;6.536;2023-04-09T06:27:37;7.80;99.90
52034;DHT22;38045;52.988;6.536;2023-04-09T06:30:03;7.80;99.90
52034;DHT22;38045;52.988;6.536;2023-04-09T06:32:29;7.80;99.90
52034;DHT22;38045;52.988;6.536;2023-04-09T06:34:55;7.80;99.90
52034;DHT22;38045;52.988;6.536;2023-04-09T06:37:20;7.80;99.90
52034;DHT22;38045;52.988;6.536;2023-04-09T06:39:46;7.80;99.90
52034;DHT22;38045;52.988;6.536;2023-04-09T06:42:11;7.90;99.90
52034;DHT22;38045;52.988;6.536;2023-04-09T06:44:37;7.90;99.90
52034;DHT22;38045;52.988;6.536;2023-04-09T06:47:02;7.90;99.90
52034;DHT22;38045;52.988;6.536;2023-04-09T06:49:28;7.90;99.90
52034;DHT22;38045;52.988;6.536;2023-04-09T06:51:54;7.90;99.90
52034;DHT22;38045;52.988;6.536;2023-04-09T06:54:20;7.90;99.90
52034;DHT22;38045;52.988;6.536;2023-04-09T06:56:46;8.00;99.90
52034;DHT22;38045;52.988;6.536;2023-04-09T06:59:11;8.00;99.90
52034;DHT22;38045;52.988;6.536;2023-04-09T07:01:37;8.10;99.90
52034;DHT22;38045;52.988;6.536;2023-04-09T07:04:04;8.10;99.90
52034;DHT22;38045;52.988;6.536;2023-04-09T07:06:30;8.10;99.90
52034;DHT22;38045;52.988;6.536;2023-04-09T07:08:55;8.20;99.90
52034;DHT22;38045;52.988;6.536;2023-04-09T07:11:21;8.20;99.90
52034;DHT22;38045;52.988;6.536;2023-04-09T07:13:47;8.20;99.90
52034;DHT22;38045;52.988;6.536;2023-04-09T07:16:12;8.20;99.90
52034;DHT22;38045;52.988;6.536;2023-04-09T07:18:38;8.30;99.90
52034;DHT22;38045;52.988;6.536;2023-04-09T07:21:03;8.40;99.90
52034;DHT22;38045;52.988;6.536;2023-04-09T07:23:33;8.40;99.90
52034;DHT22;38045;52.988;6.536;2023-04-09T07:26:02;8.50;99.90
52034;DHT22;38045;52.988;6.536;2023-04-09T07:28:28;8.60;99.90
52034;DHT22;38045;52.988;6.536;2023-04-09T07:30:53;8.60;99.90
52034;DHT22;38045;52.988;6.536;2023-04-09T07:33:19;8.60;99.90
52034;DHT22;38045;52.988;6.536;2023-04-09T07:35:45;8.60;99.90
52034;DHT22;38045;52.988;6.536;2023-04-09T07:38:11;8.70;99.90
52034;DHT22;38045;52.988;6.536;2023-04-09T07:40:37;8.70;99.90
52034;DHT22;38045;52.988;6.536;2023-04-09T07:43:04;8.70;99.90
52034;DHT22;38045;52.988;6.536;2023-04-09T07:45:30;8.80;99.90
52034;DHT22;38045;52.988;6.536;2023-04-09T07:47:55;8.80;99.90
52034;DHT22;38045;52.988;6.536;2023-04-09T07:50:21;8.90;99.90
52034;DHT22;38045;52.988;6.536;2023-04-09T07:52:47;9.00;99.90
52034;DHT22;38045;52.988;6.536;2023-04-09T07:55:12;9.00;99.90
52034;DHT22;38045;52.988;6.536;2023-04-09T07:57:38;9.00;99.90
52034;DHT22;38045;52.988;6.536;2023-04-09T08:00:04;9.00;99.90
52034;DHT22;38045;52.988;6.536;2023-04-09T08:02:30;9.00;99.90
52034;DHT22;38045;52.988;6.536;2023-04-09T08:04:55;9.00;99.90
52034;DHT22;38045;52.988;6.536;2023-04-09T08:07:21;9.10;99.90
52034;DHT22;38045;52.988;6.536;2023-04-09T08:09:46;9.10;99.90
52034;DHT22;38045;52.988;6.536;2023-04-09T08:12:13;9.10;99.90
52034;DHT22;38045;52.988;6.536;2023-04-09T08:14:38;9.10;99.90
52034;DHT22;38045;52.988;6.536;2023-04-09T08:17:04;9.10;99.90
52034;DHT22;38045;52.988;6.536;2023-04-09T08:19:30;9.10;99.90
52034;DHT22;38045;52.988;6.536;2023-04-09T08:21:55;9.10;99.90
52034;DHT22;38045;52.988;6.536;2023-04-09T08:24:23;9.20;99.90
52034;DHT22;38045;52.988;6.536;2023-04-09T08:26:48;9.20;99.90
52034;DHT22;38045;52.988;6.536;2023-04-09T08:29:14;9.40;99.90
52034;DHT22;38045;52.988;6.536;2023-04-09T08:31:40;9.40;99.90
52034;DHT22;38045;52.988;6.536;2023-04-09T08:34:06;9.50;99.90
52034;DHT22;38045;52.988;6.536;2023-04-09T08:36:32;9.60;99.90
52034;DHT22;38045;52.988;6.536;2023-04-09T08:39:00;9.70;99.90
52034;DHT22;38045;52.988;6.536;2023-04-09T08:41:26;9.80;99.90
52034;DHT22;38045;52.988;6.536;2023-04-09T08:43:56;9.90;99.90
52034;DHT22;38045;52.988;6.536;2023-04-09T08:46:23;9.90;99.90
52034;DHT22;38045;52.988;6.536;2023-04-09T08:48:50;10.00;99.90
52034;DHT22;38045;52.988;6.536;2023-04-09T08:51:18;10.10;99.90
52034;DHT22;38045;52.988;6.536;2023-04-09T08:53:45;10.00;99.90
52034;DHT22;38045;52.988;6.536;2023-04-09T08:56:12;10.20;99.90
52034;DHT22;38045;52.988;6.536;2023-04-09T08:58:46;10.20;99.90
52034;DHT22;38045;52.988;6.536;2023-04-09T09:01:29;10.30;99.90
52034;DHT22;38045;52.988;6.536;2023-04-09T09:04:02;10.50;99.90
52034;DHT22;38045;52.988;6.536;2023-04-09T09:06:46;10.50;99.90
52034;DHT22;38045;52.988;6.536;2023-04-09T09:09:13;10.60;99.90
52034;DHT22;38045;52.988;6.536;2023-04-09T09:11:46;10.60;99.90
52034;DHT22;38045;52.988;6.536;2023-04-09T09:14:17;10.70;99.90
52034;DHT22;38045;52.988;6.536;2023-04-09T09:22:04;10.60;99.90
52034;DHT22;38045;52.988;6.536;2023-04-09T09:24:31;10.60;99.90
52034;DHT22;38045;52.988;6.536;2023-04-09T09:26:57;10.60;99.90
52034;DHT22;38045;52.988;6.536;2023-04-09T09:29:23;10.60;99.90
52034;DHT22;38045;52.988;6.536;2023-04-09T09:31:52;10.70;99.90
52034;DHT22;38045;52.988;6.536;2023-04-09T09:34:19;10.70;99.90
52034;DHT22;38045;52.988;6.536;2023-04-09T09:36:45;10.80;99.90
52034;DHT22;38045;52.988;6.536;2023-04-09T09:39:12;10.90;99.90
52034;DHT22;38045;52.988;6.536;2023-04-09T09:41:47;11.00;99.90
52034;DHT22;38045;52.988;6.536;2023-04-09T09:44:30;11.10;99.90
52034;DHT22;38045;52.988;6.536;2023-04-09T09:46:56;11.20;99.90
52034;DHT22;38045;52.988;6.536;2023-04-09T09:49:23;11.30;99.90
52034;DHT22;38045;52.988;6.536;2023-04-09T09:51:48;11.40;99.90
52034;DHT22;38045;52.988;6.536;2023-04-09T09:54:19;11.40;99.90
52034;DHT22;38045;52.988;6.536;2023-04-09T09:56:50;11.40;99.90
52034;DHT22;38045;52.988;6.536;2023-04-09T09:59:21;11.40;99.90
52034;DHT22;38045;52.988;6.536;2023-04-09T10:01:55;11.40;99.90
52034;DHT22;38045;52.988;6.536;2023-04-09T10:04:27;11.60;99.90
52034;DHT22;38045;52.988;6.536;2023-04-09T10:06:54;11.80;99.90
52034;DHT22;38045;52.988;6.536;2023-04-09T10:09:21;11.90;99.90
52034;DHT22;38045;52.988;6.536;2023-04-09T10:11:47;12.10;99.90
52034;DHT22;38045;52.988;6.536;2023-04-09T10:14:15;12.20;99.90
52034;DHT22;38045;52.988;6.536;2023-04-09T10:16:42;12.20;99.90
52034;DHT22;38045;52.988;6.536;2023-04-09T10:19:08;12.30;99.90
52034;DHT22;38045;52.988;6.536;2023-04-09T10:24:21;12.20;99.90
52034;DHT22;38045;52.988;6.536;2023-04-09T10:26:47;12.20;99.90
52034;DHT22;38045;52.988;6.536;2023-04-09T10:29:14;12.20;99.90
52034;DHT22;38045;52.988;6.536;2023-04-09T10:32:03;12.30;99.90
52034;DHT22;38045;52.988;6.536;2023-04-09T10:34:34;12.50;99.90
52034;DHT22;38045;52.988;6.536;2023-04-09T10:37:00;12.70;99.90
52034;DHT22;38045;52.988;6.536;2023-04-09T10:39:29;12.70;99.90
52034;DHT22;38045;52.988;6.536;2023-04-09T10:41:57;12.60;99.90
52034;DHT22;38045;52.988;6.536;2023-04-09T10:44:25;12.40;99.90
52034;DHT22;38045;52.988;6.536;2023-04-09T10:46:56;12.40;99.90
52034;DHT22;38045;52.988;6.536;2023-04-09T10:49:23;12.70;99.90
52034;DHT22;38045;52.988;6.536;2023-04-09T10:52:06;12.80;99.90
52034;DHT22;38045;52.988;6.536;2023-04-09T10:59:40;12.90;99.90
52034;DHT22;38045;52.988;6.536;2023-04-09T11:02:16;12.90;99.90
52034;DHT22;38045;52.988;6.536;2023-04-09T11:07:18;12.80;99.90
52034;DHT22;38045;52.988;6.536;2023-04-09T11:09:46;12.90;99.90
52034;DHT22;38045;52.988;6.536;2023-04-09T11:12:12;12.90;99.90
52034;DHT22;38045;52.988;6.536;2023-04-09T11:14:38;13.00;99.90
52034;DHT22;38045;52.988;6.536;2023-04-09T11:17:03;13.00;99.90
52034;DHT22;38045;52.988;6.536;2023-04-09T11:19:29;13.00;99.90
52034;DHT22;38045;52.988;6.536;2023-04-09T11:21:55;13.10;99.90
52034;DHT22;38045;52.988;6.536;2023-04-09T11:24:20;13.20;99.90
52034;DHT22;38045;52.988;6.536;2023-04-09T11:26:47;13.20;99.90
52034;DHT22;38045;52.988;6.536;2023-04-09T11:29:13;13.30;99.90
52034;DHT22;38045;52.988;6.536;2023-04-09T11:31:43;13.40;99.90
52034;DHT22;38045;52.988;6.536;2023-04-09T11:34:09;13.70;99.90
52034;DHT22;38045;52.988;6.536;2023-04-09T11:36:36;14.00;99.90
52034;DHT22;38045;52.988;6.536;2023-04-09T11:39:03;13.90;99.90
52034;DHT22;38045;52.988;6.536;2023-04-09T11:41:36;14.00;99.90
52034;DHT22;38045;52.988;6.536;2023-04-09T11:44:04;14.00;99.90
52034;DHT22;38045;52.988;6.536;2023-04-09T11:46:34;13.80;99.90
52034;DHT22;38045;52.988;6.536;2023-04-09T11:49:01;13.80;99.90
52034;DHT22;38045;52.988;6.536;2023-04-09T11:51:27;14.00;99.90
52034;DHT22;38045;52.988;6.536;2023-04-09T11:53:55;14.00;99.90
52034;DHT22;38045;52.988;6.536;2023-04-09T11:56:20;14.10;99.90
52034;DHT22;38045;52.988;6.536;2023-04-09T11:58:47;14.10;99.90
52034;DHT22;38045;52.988;6.536;2023-04-09T12:01:14;14.10;99.90
52034;DHT22;38045;52.988;6.536;2023-04-09T12:03:40;14.30;99.90
52034;DHT22;38045;52.988;6.536;2023-04-09T12:06:06;15.00;99.90
52034;DHT22;38045;52.988;6.536;2023-04-09T12:08:33;15.40;99.90
52034;DHT22;38045;52.988;6.536;2023-04-09T12:11:14;15.70;99.90
52034;DHT22;38045;52.988;6.536;2023-04-09T12:13:40;16.00;99.90
52034;DHT22;38045;52.988;6.536;2023-04-09T12:16:07;16.10;99.90
52034;DHT22;38045;52.988;6.536;2023-04-09T12:18:36;15.70;99.90
52034;DHT22;38045;52.988;6.536;2023-04-09T12:21:02;15.40;99.90
52034;DHT22;38045;52.988;6.536;2023-04-09T12:23:28;15.20;99.90
52034;DHT22;38045;52.988;6.536;2023-04-09T12:25:56;15.10;99.90
52034;DHT22;38045;52.988;6.536;2023-04-09T12:28:24;15.10;99.90
52034;DHT22;38045;52.988;6.536;2023-04-09T12:30:50;14.90;99.90
52034;DHT22;38045;52.988;6.536;2023-04-09T12:33:16;14.90;99.90
52034;DHT22;38045;52.988;6.536;2023-04-09T12:35:41;15.00;99.90
52034;DHT22;38045;52.988;6.536;2023-04-09T12:38:07;15.30;99.90
52034;DHT22;38045;52.988;6.536;2023-04-09T12:40:34;15.70;99.90
52034;DHT22;38045;52.988;6.536;2023-04-09T12:43:00;16.00;99.90
52034;DHT22;38045;52.988;6.536;2023-04-09T12:45:26;16.30;99.90
52034;DHT22;38045;52.988;6.536;2023-04-09T12:47:52;16.40;99.90
52034;DHT22;38045;52.988;6.536;2023-04-09T12:50:18;16.50;99.90
52034;DHT22;38045;52.988;6.536;2023-04-09T12:52:44;16.70;99.90
52034;DHT22;38045;52.988;6.536;2023-04-09T12:55:10;17.10;99.90
52034;DHT22;38045;52.988;6.536;2023-04-09T12:57:37;17.40;99.90
52034;DHT22;38045;52.988;6.536;2023-04-09T13:00:05;17.50;99.90
52034;DHT22;38045;52.988;6.536;2023-04-09T13:02:32;17.40;99.90
52034;DHT22;38045;52.988;6.536;2023-04-09T13:04:58;17.20;99.90
52034;DHT22;38045;52.988;6.536;2023-04-09T13:07:24;17.10;99.90
52034;DHT22;38045;52.988;6.536;2023-04-09T13:09:54;17.00;99.00
52034;DHT22;38045;52.988;6.536;2023-04-09T13:12:19;17.10;99.90
52034;DHT22;38045;52.988;6.536;2023-04-09T13:14:46;17.20;99.90
52034;DHT22;38045;52.988;6.536;2023-04-09T13:17:13;17.30;99.90
52034;DHT22;38045;52.988;6.536;2023-04-09T13:19:39;17.20;99.90
52034;DHT22;38045;52.988;6.536;2023-04-09T13:22:04;17.30;99.90
52034;DHT22;38045;52.988;6.536;2023-04-09T13:24:33;17.40;99.90
52034;DHT22;38045;52.988;6.536;2023-04-09T13:26:59;17.40;99.90
52034;DHT22;38045;52.988;6.536;2023-04-09T13:29:25;17.30;99.90
52034;DHT22;38045;52.988;6.536;2023-04-09T13:31:54;17.30;99.90
52034;DHT22;38045;52.988;6.536;2023-04-09T13:34:20;17.60;99.90
52034;DHT22;38045;52.988;6.536;2023-04-09T13:36:46;17.80;99.90
52034;DHT22;38045;52.988;6.536;2023-04-09T13:39:11;17.70;99.90
52034;DHT22;38045;52.988;6.536;2023-04-09T13:41:37;17.60;99.90
52034;DHT22;38045;52.988;6.536;2023-04-09T13:44:02;17.60;98.90
52034;DHT22;38045;52.988;6.536;2023-04-09T13:46:28;17.70;99.90
52034;DHT22;38045;52.988;6.536;2023-04-09T13:48:54;17.70;99.90
52034;DHT22;38045;52.988;6.536;2023-04-09T13:51:21;17.80;99.00
52034;DHT22;38045;52.988;6.536;2023-04-09T13:53:47;17.70;98.30
52034;DHT22;38045;52.988;6.536;2023-04-09T13:56:13;17.70;99.00
52034;DHT22;38045;52.988;6.536;2023-04-09T13:58:39;17.60;96.90
52034;DHT22;38045;52.988;6.536;2023-04-09T14:01:06;17.40;97.10
52034;DHT22;38045;52.988;6.536;2023-04-09T14:03:31;17.50;98.20
52034;DHT22;38045;52.988;6.536;2023-04-09T14:05:57;17.40;97.10
52034;DHT22;38045;52.988;6.536;2023-04-09T14:08:23;17.20;97.80
52034;DHT22;38045;52.988;6.536;2023-04-09T14:10:48;17.40;97.80
52034;DHT22;38045;52.988;6.536;2023-04-09T14:13:14;17.40;98.30
52034;DHT22;38045;52.988;6.536;2023-04-09T14:15:39;17.30;98.00
52034;DHT22;38045;52.988;6.536;2023-04-09T14:18:06;17.30;95.50
52034;DHT22;38045;52.988;6.536;2023-04-09T14:20:33;17.40;97.40
52034;DHT22;38045;52.988;6.536;2023-04-09T14:22:59;17.40;96.60
52034;DHT22;38045;52.988;6.536;2023-04-09T14:25:25;17.50;96.10
52034;DHT22;38045;52.988;6.536;2023-04-09T14:27:51;17.60;97.50
52034;DHT22;38045;52.988;6.536;2023-04-09T14:30:16;17.70;96.80
52034;DHT22;38045;52.988;6.536;2023-04-09T14:32:42;17.80;95.90
52034;DHT22;38045;52.988;6.536;2023-04-09T14:35:08;17.80;95.70
52034;DHT22;38045;52.988;6.536;2023-04-09T14:37:34;17.90;96.60
52034;DHT22;38045;52.988;6.536;2023-04-09T14:39:59;17.70;96.30
52034;DHT22;38045;52.988;6.536;2023-04-09T14:42:25;17.30;96.30
52034;DHT22;38045;52.988;6.536;2023-04-09T14:44:51;17.20;96.60
52034;DHT22;38045;52.988;6.536;2023-04-09T14:47:16;17.20;97.10
52034;DHT22;38045;52.988;6.536;2023-04-09T14:49:42;17.40;96.60
52034;DHT22;38045;52.988;6.536;2023-04-09T14:52:07;17.60;96.90
52034;DHT22;38045;52.988;6.536;2023-04-09T14:54:33;17.90;96.20
52034;DHT22;38045;52.988;6.536;2023-04-09T14:56:59;17.80;96.10
52034;DHT22;38045;52.988;6.536;2023-04-09T14:59:27;17.90;96.90
52034;DHT22;38045;52.988;6.536;2023-04-09T15:01:53;18.00;96.60
52034;DHT22;38045;52.988;6.536;2023-04-09T15:04:18;18.00;96.70
52034;DHT22;38045;52.988;6.536;2023-04-09T15:06:44;17.90;95.50
52034;DHT22;38045;52.988;6.536;2023-04-09T15:09:10;17.90;95.90
52034;DHT22;38045;52.988;6.536;2023-04-09T15:11:36;17.80;96.00
52034;DHT22;38045;52.988;6.536;2023-04-09T15:14:01;17.60;96.20
52034;DHT22;38045;52.988;6.536;2023-04-09T15:16:27;17.30;95.80
52034;DHT22;38045;52.988;6.536;2023-04-09T15:18:53;16.80;96.00
52034;DHT22;38045;52.988;6.536;2023-04-09T15:21:20;16.60;95.90
52034;DHT22;38045;52.988;6.536;2023-04-09T15:23:48;16.30;96.70
52034;DHT22;38045;52.988;6.536;2023-04-09T15:26:14;16.10;96.50
52034;DHT22;38045;52.988;6.536;2023-04-09T15:28:40;16.00;97.20
52034;DHT22;38045;52.988;6.536;2023-04-09T15:31:06;16.00;97.50
52034;DHT22;38045;52.988;6.536;2023-04-09T15:33:31;15.90;97.30
52034;DHT22;38045;52.988;6.536;2023-04-09T15:35:58;15.80;97.40
52034;DHT22;38045;52.988;6.536;2023-04-09T15:38:23;15.60;97.50
52034;DHT22;38045;52.988;6.536;2023-04-09T15:40:54;15.50;97.80
52034;DHT22;38045;52.988;6.536;2023-04-09T15:43:20;15.50;97.40
52034;DHT22;38045;52.988;6.536;2023-04-09T15:45:50;15.60;97.80
52034;DHT22;38045;52.988;6.536;2023-04-09T15:48:16;15.50;97.70
52034;DHT22;38045;52.988;6.536;2023-04-09T15:50:43;15.70;98.00
52034;DHT22;38045;52.988;6.536;2023-04-09T15:53:09;16.70;98.30
52034;DHT22;38045;52.988;6.536;2023-04-09T15:55:35;17.90;96.10
52034;DHT22;38045;52.988;6.536;2023-04-09T15:58:00;17.90;93.60
52034;DHT22;38045;52.988;6.536;2023-04-09T16:00:26;17.40;93.70
52034;DHT22;38045;52.988;6.536;2023-04-09T16:02:52;16.90;94.00